• Join FlightAware (Why Join?)
  • Login
  • US Flag 
09:42AM EDT


 

Airport Tracker/Info


-or-


 

Live Flight TrackerFlight Track Log ✈ GUG703 ✈ 07-Feb-2014 ✈ MHLM / SAP - MGGT / GUA

Flight Track Log - Related Links

Times and Time Zones

All times are in EST time to prevent confusion due to time zone crossing. See the GUG703 flight status page for this flight to view local times or setup timezone preferences in your user account.

Time Position Orientation Groundspeed Altitude Reporting Facility
EST Latitude Longitude Course Direction KTS MPH feet Rate Location/Type
10:28PM 15.1086 -88.9674 251° West  Level Estimated
10:29PM 15.0893 -89.0253 251° West  Level Estimated
10:30PM 15.0700 -89.0832 251° West  Level Estimated
10:31PM 15.0507 -89.1410 251° West  Level Estimated
10:32PM 15.0314 -89.1989 251° West  Level Estimated
10:33PM 15.0121 -89.2567 251° West  Level Estimated
10:34PM 14.9928 -89.3146 251° West  Level Estimated
10:35PM 14.9734 -89.3724 251° West  Level Estimated
10:36PM 14.9541 -89.4302 251° West  Level Estimated
10:37PM 14.9347 -89.4880 251° West  Level Estimated
10:38PM 14.9153 -89.5458 251° West  Level Estimated
10:39PM 14.8959 -89.6036 251° West  Level Estimated
10:40PM 14.8765 -89.6614 251° West  Level Estimated
10:41PM 14.8571 -89.7191 251° West  Level Estimated
10:42PM 14.8376 -89.7769 251° West  Level Estimated
10:43PM 14.8182 -89.8346 251° West  Level Estimated
10:44PM 14.7987 -89.8924 251° West  Level Estimated
10:45PM 14.7792 -89.9501 251° West  Level Estimated
10:46PM 14.7597 -90.0078 251° West  Level Estimated
10:47PM 14.7402 -90.0655 251° West  Level Estimated
10:48PM 14.7206 -90.1232 251° West  Level Estimated
10:49PM 14.7011 -90.1809 251° West  Level Estimated
10:50PM 14.6815 -90.2385 251° West  Level Estimated
10:51PM 14.6620 -90.2962 251° West  Level Estimated
10:52PM 14.6424 -90.3539 251° West  Level Estimated
10:53PM 14.6228 -90.4115 251° West  Level Estimated
10:54PM 14.6032 -90.4691 251° West  Level Estimated
10:55PM 14.5835 -90.5267 251° West  Level Estimated
10:56PM 14.5833 -90.5275 251° West  Level Estimated
10:57PM 14.5833 -90.5275 292° West  Level Estimated
10:58PM 14.5833 -90.5275 68° East  Level Estimated
10:59PM 14.5833 -90.5275 292° West  Level Estimated
11:00PM 14.5833 -90.5275 68° East  Level Estimated
11:01PM 14.5833 -90.5275 292° West  Level Estimated
11:02PM 14.5833 -90.5275 68° East  Level Estimated
11:03PM 14.5833 -90.5275 292° West  Level Estimated
11:04PM 14.5833 -90.5275 68° East  Level Estimated
11:05PM 14.5833 -90.5275 292° West  Level Estimated
11:06PM 14.5833 -90.5275 68° East  Level Estimated
11:07PM 14.5833 -90.5275 292° West  Level Estimated
11:08PM 14.5833 -90.5275 68° East  Level Estimated
11:09PM 14.5833 -90.5275 292° West  Level Estimated
11:10PM 14.5833 -90.5275 68° East  Level Estimated
11:11PM 14.5833 -90.5275 292° West  Level Estimated